sensor_id;sensor_type;location;lat;lon;timestamp;P1;durP1;ratioP1;P2;durP2;ratioP2
18649;SDS011;9454;53.516;10.478;2024-02-15T00:01:05;9.43;;;4.50;;
18649;SDS011;9454;53.516;10.478;2024-02-15T00:04:58;7.47;;;4.63;;
18649;SDS011;9454;53.516;10.478;2024-02-15T00:08:03;14.30;;;4.88;;
18649;SDS011;9454;53.516;10.478;2024-02-15T00:11:22;6.90;;;4.13;;
18649;SDS011;9454;53.516;10.478;2024-02-15T00:14:28;19.48;;;5.18;;
18649;SDS011;9454;53.516;10.478;2024-02-15T00:21:33;9.25;;;5.43;;
18649;SDS011;9454;53.516;10.478;2024-02-15T00:24:38;14.52;;;4.97;;
18649;SDS011;9454;53.516;10.478;2024-02-15T00:27:49;13.63;;;5.95;;
18649;SDS011;9454;53.516;10.478;2024-02-15T00:31:10;9.60;;;5.80;;
18649;SDS011;9454;53.516;10.478;2024-02-15T00:34:15;11.80;;;6.05;;
18649;SDS011;9454;53.516;10.478;2024-02-15T00:37:20;12.18;;;6.07;;
18649;SDS011;9454;53.516;10.478;2024-02-15T00:40:27;10.40;;;5.57;;
18649;SDS011;9454;53.516;10.478;2024-02-15T00:43:36;9.85;;;5.32;;
18649;SDS011;9454;53.516;10.478;2024-02-15T00:46:41;10.52;;;5.95;;
18649;SDS011;9454;53.516;10.478;2024-02-15T00:49:44;15.18;;;5.68;;
18649;SDS011;9454;53.516;10.478;2024-02-15T00:52:48;17.33;;;6.20;;
18649;SDS011;9454;53.516;10.478;2024-02-15T00:55:52;13.85;;;5.60;;
18649;SDS011;9454;53.516;10.478;2024-02-15T00:58:58;14.48;;;6.72;;
18649;SDS011;9454;53.516;10.478;2024-02-15T01:02:17;10.20;;;5.90;;
18649;SDS011;9454;53.516;10.478;2024-02-15T01:05:21;12.32;;;5.57;;
18649;SDS011;9454;53.516;10.478;2024-02-15T01:08:26;13.63;;;6.43;;
18649;SDS011;9454;53.516;10.478;2024-02-15T01:11:29;12.75;;;6.63;;
18649;SDS011;9454;53.516;10.478;2024-02-15T01:14:35;11.68;;;6.65;;
18649;SDS011;9454;53.516;10.478;2024-02-15T01:17:39;12.10;;;5.80;;
18649;SDS011;9454;53.516;10.478;2024-02-15T01:20:42;9.95;;;6.32;;
18649;SDS011;9454;53.516;10.478;2024-02-15T01:23:47;11.80;;;5.47;;
18649;SDS011;9454;53.516;10.478;2024-02-15T01:26:52;9.73;;;5.10;;
18649;SDS011;9454;53.516;10.478;2024-02-15T01:29:59;13.13;;;5.43;;
18649;SDS011;9454;53.516;10.478;2024-02-15T01:33:02;9.65;;;5.30;;
18649;SDS011;9454;53.516;10.478;2024-02-15T01:36:08;12.95;;;5.50;;
18649;SDS011;9454;53.516;10.478;2024-02-15T01:39:12;9.82;;;5.50;;
18649;SDS011;9454;53.516;10.478;2024-02-15T01:42:16;8.57;;;4.95;;
18649;SDS011;9454;53.516;10.478;2024-02-15T01:45:21;14.35;;;6.15;;
18649;SDS011;9454;53.516;10.478;2024-02-15T01:48:28;15.57;;;4.97;;
18649;SDS011;9454;53.516;10.478;2024-02-15T01:51:33;10.70;;;5.72;;
18649;SDS011;9454;53.516;10.478;2024-02-15T01:54:38;14.80;;;5.32;;
18649;SDS011;9454;53.516;10.478;2024-02-15T01:57:43;11.52;;;5.45;;
18649;SDS011;9454;53.516;10.478;2024-02-15T02:00:56;14.50;;;6.43;;
18649;SDS011;9454;53.516;10.478;2024-02-15T02:04:16;12.05;;;5.70;;
18649;SDS011;9454;53.516;10.478;2024-02-15T02:08:17;19.08;;;6.50;;
18649;SDS011;9454;53.516;10.478;2024-02-15T02:11:45;10.50;;;5.88;;
18649;SDS011;9454;53.516;10.478;2024-02-15T02:15:10;11.60;;;5.75;;
18649;SDS011;9454;53.516;10.478;2024-02-15T02:18:15;12.07;;;5.53;;
18649;SDS011;9454;53.516;10.478;2024-02-15T02:21:20;14.07;;;5.55;;
18649;SDS011;9454;53.516;10.478;2024-02-15T02:24:26;15.20;;;5.38;;
18649;SDS011;9454;53.516;10.478;2024-02-15T02:27:35;12.93;;;5.78;;
18649;SDS011;9454;53.516;10.478;2024-02-15T02:30:42;14.93;;;6.72;;
18649;SDS011;9454;53.516;10.478;2024-02-15T02:33:51;13.20;;;6.28;;
18649;SDS011;9454;53.516;10.478;2024-02-15T02:36:55;15.82;;;5.82;;
18649;SDS011;9454;53.516;10.478;2024-02-15T02:39:59;13.90;;;6.60;;
18649;SDS011;9454;53.516;10.478;2024-02-15T02:43:05;15.93;;;6.95;;
18649;SDS011;9454;53.516;10.478;2024-02-15T02:46:10;10.70;;;6.57;;
18649;SDS011;9454;53.516;10.478;2024-02-15T02:49:14;14.18;;;6.55;;
18649;SDS011;9454;53.516;10.478;2024-02-15T02:52:18;15.70;;;7.00;;
18649;SDS011;9454;53.516;10.478;2024-02-15T02:55:22;12.80;;;6.95;;
18649;SDS011;9454;53.516;10.478;2024-02-15T02:58:30;16.38;;;6.75;;
18649;SDS011;9454;53.516;10.478;2024-02-15T03:01:35;17.67;;;7.70;;
18649;SDS011;9454;53.516;10.478;2024-02-15T03:04:53;14.80;;;6.72;;
18649;SDS011;9454;53.516;10.478;2024-02-15T03:07:57;16.48;;;6.57;;
18649;SDS011;9454;53.516;10.478;2024-02-15T03:11:03;13.93;;;7.13;;
18649;SDS011;9454;53.516;10.478;2024-02-15T03:14:10;15.13;;;6.78;;
18649;SDS011;9454;53.516;10.478;2024-02-15T03:17:18;13.80;;;6.88;;
18649;SDS011;9454;53.516;10.478;2024-02-15T03:20:22;12.65;;;6.47;;
18649;SDS011;9454;53.516;10.478;2024-02-15T03:23:27;14.35;;;6.90;;
18649;SDS011;9454;53.516;10.478;2024-02-15T03:26:41;15.43;;;7.15;;
18649;SDS011;9454;53.516;10.478;2024-02-15T03:29:47;13.20;;;6.72;;
18649;SDS011;9454;53.516;10.478;2024-02-15T03:32:51;14.05;;;7.20;;
18649;SDS011;9454;53.516;10.478;2024-02-15T03:35:56;16.00;;;6.93;;
18649;SDS011;9454;53.516;10.478;2024-02-15T03:39:03;13.43;;;5.93;;
18649;SDS011;9454;53.516;10.478;2024-02-15T03:42:09;11.80;;;6.72;;
18649;SDS011;9454;53.516;10.478;2024-02-15T03:45:14;19.63;;;6.53;;
18649;SDS011;9454;53.516;10.478;2024-02-15T03:48:18;16.13;;;6.15;;
18649;SDS011;9454;53.516;10.478;2024-02-15T03:51:22;12.27;;;6.30;;
18649;SDS011;9454;53.516;10.478;2024-02-15T03:54:28;18.50;;;6.78;;
18649;SDS011;9454;53.516;10.478;2024-02-15T03:57:33;10.52;;;5.72;;
18649;SDS011;9454;53.516;10.478;2024-02-15T04:00:39;17.88;;;5.82;;
18649;SDS011;9454;53.516;10.478;2024-02-15T04:03:43;10.15;;;5.25;;
18649;SDS011;9454;53.516;10.478;2024-02-15T04:06:49;12.05;;;5.78;;
18649;SDS011;9454;53.516;10.478;2024-02-15T04:09:56;11.45;;;5.60;;
18649;SDS011;9454;53.516;10.478;2024-02-15T04:13:00;8.60;;;4.45;;
18649;SDS011;9454;53.516;10.478;2024-02-15T04:16:06;10.43;;;5.57;;
18649;SDS011;9454;53.516;10.478;2024-02-15T04:19:11;11.75;;;4.80;;
18649;SDS011;9454;53.516;10.478;2024-02-15T04:22:17;9.57;;;5.05;;
18649;SDS011;9454;53.516;10.478;2024-02-15T04:25:21;10.05;;;5.60;;
18649;SDS011;9454;53.516;10.478;2024-02-15T04:28:29;12.45;;;5.53;;
18649;SDS011;9454;53.516;10.478;2024-02-15T04:34:57;9.57;;;4.93;;
18649;SDS011;9454;53.516;10.478;2024-02-15T04:38:01;9.88;;;5.07;;
18649;SDS011;9454;53.516;10.478;2024-02-15T04:41:05;12.15;;;5.07;;
18649;SDS011;9454;53.516;10.478;2024-02-15T04:44:11;14.55;;;5.53;;
18649;SDS011;9454;53.516;10.478;2024-02-15T04:47:14;12.82;;;6.28;;
18649;SDS011;9454;53.516;10.478;2024-02-15T04:50:20;12.25;;;5.30;;
18649;SDS011;9454;53.516;10.478;2024-02-15T04:53:23;11.68;;;5.85;;
18649;SDS011;9454;53.516;10.478;2024-02-15T04:56:42;14.07;;;5.65;;
18649;SDS011;9454;53.516;10.478;2024-02-15T04:59:45;14.73;;;5.28;;
18649;SDS011;9454;53.516;10.478;2024-02-15T05:02:52;19.77;;;6.10;;
18649;SDS011;9454;53.516;10.478;2024-02-15T05:05:57;22.20;;;10.23;;
18649;SDS011;9454;53.516;10.478;2024-02-15T05:09:01;19.77;;;8.50;;
18649;SDS011;9454;53.516;10.478;2024-02-15T05:12:08;21.42;;;6.95;;
18649;SDS011;9454;53.516;10.478;2024-02-15T05:15:12;13.48;;;6.20;;
18649;SDS011;9454;53.516;10.478;2024-02-15T05:18:18;16.10;;;7.13;;
18649;SDS011;9454;53.516;10.478;2024-02-15T05:21:24;15.32;;;7.47;;
18649;SDS011;9454;53.516;10.478;2024-02-15T05:24:27;15.38;;;7.25;;
18649;SDS011;9454;53.516;10.478;2024-02-15T05:27:33;17.90;;;6.32;;
18649;SDS011;9454;53.516;10.478;2024-02-15T05:30:37;16.17;;;6.70;;
18649;SDS011;9454;53.516;10.478;2024-02-15T05:33:41;13.25;;;5.95;;
18649;SDS011;9454;53.516;10.478;2024-02-15T05:36:47;21.05;;;6.53;;
18649;SDS011;9454;53.516;10.478;2024-02-15T05:39:51;15.25;;;6.00;;
18649;SDS011;9454;53.516;10.478;2024-02-15T05:42:55;17.70;;;7.25;;
18649;SDS011;9454;53.516;10.478;2024-02-15T05:46:03;12.93;;;6.47;;
18649;SDS011;9454;53.516;10.478;2024-02-15T05:49:07;19.70;;;6.40;;
18649;SDS011;9454;53.516;10.478;2024-02-15T05:52:19;14.65;;;6.90;;
18649;SDS011;9454;53.516;10.478;2024-02-15T05:55:24;19.23;;;7.82;;
18649;SDS011;9454;53.516;10.478;2024-02-15T05:58:28;15.20;;;7.15;;
18649;SDS011;9454;53.516;10.478;2024-02-15T06:01:41;15.05;;;6.72;;
18649;SDS011;9454;53.516;10.478;2024-02-15T06:04:45;17.23;;;6.78;;
18649;SDS011;9454;53.516;10.478;2024-02-15T06:07:51;16.25;;;7.60;;
18649;SDS011;9454;53.516;10.478;2024-02-15T06:10:54;13.05;;;6.30;;
18649;SDS011;9454;53.516;10.478;2024-02-15T06:13:58;19.30;;;7.05;;
18649;SDS011;9454;53.516;10.478;2024-02-15T06:17:02;16.70;;;7.70;;
18649;SDS011;9454;53.516;10.478;2024-02-15T06:20:09;16.35;;;8.18;;
18649;SDS011;9454;53.516;10.478;2024-02-15T06:23:14;24.52;;;7.55;;
18649;SDS011;9454;53.516;10.478;2024-02-15T06:26:18;16.98;;;7.22;;
18649;SDS011;9454;53.516;10.478;2024-02-15T06:29:23;17.88;;;7.88;;
18649;SDS011;9454;53.516;10.478;2024-02-15T06:32:44;15.98;;;7.05;;
18649;SDS011;9454;53.516;10.478;2024-02-15T06:36:05;15.80;;;7.32;;
18649;SDS011;9454;53.516;10.478;2024-02-15T06:39:43;15.75;;;7.18;;
18649;SDS011;9454;53.516;10.478;2024-02-15T06:42:47;22.10;;;7.63;;
18649;SDS011;9454;53.516;10.478;2024-02-15T06:45:51;16.75;;;7.03;;
18649;SDS011;9454;53.516;10.478;2024-02-15T06:48:54;18.38;;;8.02;;
18649;SDS011;9454;53.516;10.478;2024-02-15T06:52:00;19.05;;;7.80;;
18649;SDS011;9454;53.516;10.478;2024-02-15T06:55:09;17.35;;;7.13;;
18649;SDS011;9454;53.516;10.478;2024-02-15T06:58:13;17.77;;;6.93;;
18649;SDS011;9454;53.516;10.478;2024-02-15T07:01:18;15.30;;;6.80;;
18649;SDS011;9454;53.516;10.478;2024-02-15T07:04:22;13.80;;;7.35;;
18649;SDS011;9454;53.516;10.478;2024-02-15T07:07:31;18.20;;;8.88;;
18649;SDS011;9454;53.516;10.478;2024-02-15T07:10:38;19.80;;;7.07;;
18649;SDS011;9454;53.516;10.478;2024-02-15T07:13:43;20.88;;;7.28;;
18649;SDS011;9454;53.516;10.478;2024-02-15T07:16:49;19.33;;;7.57;;
18649;SDS011;9454;53.516;10.478;2024-02-15T07:19:54;21.38;;;6.97;;
18649;SDS011;9454;53.516;10.478;2024-02-15T07:22:57;18.90;;;7.20;;
18649;SDS011;9454;53.516;10.478;2024-02-15T07:26:06;16.90;;;7.38;;
18649;SDS011;9454;53.516;10.478;2024-02-15T07:29:12;15.95;;;7.63;;
18649;SDS011;9454;53.516;10.478;2024-02-15T07:32:16;17.38;;;7.53;;
18649;SDS011;9454;53.516;10.478;2024-02-15T07:35:21;16.50;;;7.93;;
18649;SDS011;9454;53.516;10.478;2024-02-15T07:38:26;15.35;;;7.05;;
18649;SDS011;9454;53.516;10.478;2024-02-15T07:41:46;20.80;;;7.82;;
18649;SDS011;9454;53.516;10.478;2024-02-15T07:44:51;16.60;;;7.55;;
18649;SDS011;9454;53.516;10.478;2024-02-15T07:47:54;17.70;;;7.38;;
18649;SDS011;9454;53.516;10.478;2024-02-15T07:50:58;15.65;;;7.90;;
18649;SDS011;9454;53.516;10.478;2024-02-15T07:54:02;17.58;;;7.70;;
18649;SDS011;9454;53.516;10.478;2024-02-15T07:57:08;16.23;;;7.20;;
18649;SDS011;9454;53.516;10.478;2024-02-15T08:00:13;31.73;;;6.93;;
18649;SDS011;9454;53.516;10.478;2024-02-15T08:03:19;19.85;;;7.53;;
18649;SDS011;9454;53.516;10.478;2024-02-15T08:06:23;13.02;;;6.93;;
18649;SDS011;9454;53.516;10.478;2024-02-15T08:09:30;12.00;;;6.78;;
18649;SDS011;9454;53.516;10.478;2024-02-15T08:12:41;14.13;;;7.35;;
18649;SDS011;9454;53.516;10.478;2024-02-15T08:15:53;14.10;;;7.47;;
18649;SDS011;9454;53.516;10.478;2024-02-15T08:19:00;14.23;;;6.90;;
18649;SDS011;9454;53.516;10.478;2024-02-15T08:22:07;15.95;;;7.20;;
18649;SDS011;9454;53.516;10.478;2024-02-15T08:25:14;13.77;;;6.60;;
18649;SDS011;9454;53.516;10.478;2024-02-15T08:28:21;13.40;;;6.22;;
18649;SDS011;9454;53.516;10.478;2024-02-15T08:31:26;14.95;;;6.10;;
18649;SDS011;9454;53.516;10.478;2024-02-15T08:34:29;13.95;;;6.20;;
18649;SDS011;9454;53.516;10.478;2024-02-15T08:37:44;13.05;;;5.72;;
18649;SDS011;9454;53.516;10.478;2024-02-15T08:40:49;13.98;;;6.25;;
18649;SDS011;9454;53.516;10.478;2024-02-15T08:43:55;13.25;;;6.50;;
18649;SDS011;9454;53.516;10.478;2024-02-15T08:47:00;15.65;;;5.90;;
18649;SDS011;9454;53.516;10.478;2024-02-15T08:50:04;10.63;;;5.35;;
18649;SDS011;9454;53.516;10.478;2024-02-15T08:53:08;18.60;;;7.00;;
18649;SDS011;9454;53.516;10.478;2024-02-15T08:56:13;13.63;;;6.07;;
18649;SDS011;9454;53.516;10.478;2024-02-15T08:59:18;10.52;;;5.57;;
18649;SDS011;9454;53.516;10.478;2024-02-15T09:02:25;13.13;;;5.88;;
18649;SDS011;9454;53.516;10.478;2024-02-15T09:05:29;13.75;;;5.95;;
18649;SDS011;9454;53.516;10.478;2024-02-15T09:08:33;15.43;;;5.63;;
18649;SDS011;9454;53.516;10.478;2024-02-15T09:11:37;11.73;;;5.57;;
18649;SDS011;9454;53.516;10.478;2024-02-15T09:14:42;9.63;;;4.80;;
18649;SDS011;9454;53.516;10.478;2024-02-15T09:17:46;8.98;;;5.15;;
18649;SDS011;9454;53.516;10.478;2024-02-15T09:20:50;14.63;;;4.90;;
18649;SDS011;9454;53.516;10.478;2024-02-15T09:23:58;13.10;;;5.35;;
18649;SDS011;9454;53.516;10.478;2024-02-15T09:27:05;7.45;;;4.15;;
18649;SDS011;9454;53.516;10.478;2024-02-15T09:30:12;17.23;;;5.15;;
18649;SDS011;9454;53.516;10.478;2024-02-15T09:33:19;9.70;;;4.43;;
18649;SDS011;9454;53.516;10.478;2024-02-15T09:36:24;9.38;;;4.40;;
18649;SDS011;9454;53.516;10.478;2024-02-15T09:42:58;10.23;;;4.07;;
18649;SDS011;9454;53.516;10.478;2024-02-15T09:46:07;9.32;;;3.97;;
18649;SDS011;9454;53.516;10.478;2024-02-15T09:49:12;10.00;;;4.30;;
18649;SDS011;9454;53.516;10.478;2024-02-15T09:52:19;8.25;;;3.67;;
18649;SDS011;9454;53.516;10.478;2024-02-15T09:55:24;11.45;;;3.78;;
18649;SDS011;9454;53.516;10.478;2024-02-15T09:58:33;6.00;;;3.60;;
18649;SDS011;9454;53.516;10.478;2024-02-15T10:01:44;7.00;;;3.63;;
18649;SDS011;9454;53.516;10.478;2024-02-15T10:04:53;7.45;;;3.67;;
18649;SDS011;9454;53.516;10.478;2024-02-15T10:07:59;8.73;;;3.67;;
18649;SDS011;9454;53.516;10.478;2024-02-15T10:11:07;8.48;;;4.00;;
18649;SDS011;9454;53.516;10.478;2024-02-15T10:14:13;6.75;;;3.63;;
18649;SDS011;9454;53.516;10.478;2024-02-15T10:17:23;8.30;;;3.85;;
18649;SDS011;9454;53.516;10.478;2024-02-15T10:20:30;7.20;;;3.88;;
18649;SDS011;9454;53.516;10.478;2024-02-15T10:23:37;13.45;;;3.92;;
18649;SDS011;9454;53.516;10.478;2024-02-15T10:26:43;7.25;;;3.95;;
18649;SDS011;9454;53.516;10.478;2024-02-15T10:29:50;5.43;;;3.25;;
18649;SDS011;9454;53.516;10.478;2024-02-15T10:32:59;6.40;;;4.03;;
18649;SDS011;9454;53.516;10.478;2024-02-15T10:36:04;8.95;;;4.18;;
18649;SDS011;9454;53.516;10.478;2024-02-15T10:39:11;7.47;;;4.03;;
18649;SDS011;9454;53.516;10.478;2024-02-15T10:42:20;10.27;;;4.80;;
18649;SDS011;9454;53.516;10.478;2024-02-15T10:45:27;9.63;;;4.00;;
18649;SDS011;9454;53.516;10.478;2024-02-15T10:48:35;11.57;;;4.95;;
18649;SDS011;9454;53.516;10.478;2024-02-15T10:51:43;9.20;;;5.13;;
18649;SDS011;9454;53.516;10.478;2024-02-15T10:54:52;14.27;;;5.30;;
18649;SDS011;9454;53.516;10.478;2024-02-15T10:57:55;19.33;;;5.93;;
18649;SDS011;9454;53.516;10.478;2024-02-15T11:01:05;11.80;;;5.55;;
18649;SDS011;9454;53.516;10.478;2024-02-15T11:04:14;10.02;;;5.13;;
18649;SDS011;9454;53.516;10.478;2024-02-15T11:07:18;13.57;;;5.90;;
18649;SDS011;9454;53.516;10.478;2024-02-15T11:10:28;11.40;;;5.85;;
18649;SDS011;9454;53.516;10.478;2024-02-15T11:13:32;13.35;;;6.05;;
18649;SDS011;9454;53.516;10.478;2024-02-15T11:16:40;20.33;;;6.70;;
18649;SDS011;9454;53.516;10.478;2024-02-15T11:19:46;13.18;;;6.50;;
18649;SDS011;9454;53.516;10.478;2024-02-15T11:22:55;18.80;;;6.35;;
18649;SDS011;9454;53.516;10.478;2024-02-15T11:26:00;15.85;;;6.72;;
18649;SDS011;9454;53.516;10.478;2024-02-15T11:29:04;16.83;;;7.97;;
18649;SDS011;9454;53.516;10.478;2024-02-15T11:32:09;17.17;;;7.18;;
18649;SDS011;9454;53.516;10.478;2024-02-15T11:35:15;20.70;;;7.22;;
18649;SDS011;9454;53.516;10.478;2024-02-15T11:38:27;20.35;;;7.00;;
18649;SDS011;9454;53.516;10.478;2024-02-15T11:41:31;19.50;;;8.32;;
18649;SDS011;9454;53.516;10.478;2024-02-15T11:44:35;17.88;;;8.20;;
18649;SDS011;9454;53.516;10.478;2024-02-15T11:47:43;20.17;;;8.38;;
18649;SDS011;9454;53.516;10.478;2024-02-15T11:50:53;18.77;;;9.00;;
18649;SDS011;9454;53.516;10.478;2024-02-15T11:54:04;18.60;;;8.55;;
18649;SDS011;9454;53.516;10.478;2024-02-15T11:57:13;18.80;;;8.65;;
18649;SDS011;9454;53.516;10.478;2024-02-15T12:00:29;17.35;;;8.57;;
18649;SDS011;9454;53.516;10.478;2024-02-15T12:03:52;25.50;;;9.13;;
18649;SDS011;9454;53.516;10.478;2024-02-15T12:07:15;18.58;;;8.80;;
18649;SDS011;9454;53.516;10.478;2024-02-15T12:10:36;18.02;;;8.70;;
18649;SDS011;9454;53.516;10.478;2024-02-15T12:14:01;21.67;;;8.45;;
18649;SDS011;9454;53.516;10.478;2024-02-15T12:17:23;14.18;;;8.15;;
18649;SDS011;9454;53.516;10.478;2024-02-15T12:20:46;22.75;;;8.35;;
18649;SDS011;9454;53.516;10.478;2024-02-15T12:23:52;17.23;;;8.30;;
18649;SDS011;9454;53.516;10.478;2024-02-15T12:27:00;21.48;;;8.00;;
18649;SDS011;9454;53.516;10.478;2024-02-15T12:30:06;13.82;;;7.38;;
18649;SDS011;9454;53.516;10.478;2024-02-15T12:33:12;17.52;;;8.60;;
18649;SDS011;9454;53.516;10.478;2024-02-15T12:36:22;19.90;;;8.05;;
18649;SDS011;9454;53.516;10.478;2024-02-15T12:39:29;21.23;;;7.47;;
18649;SDS011;9454;53.516;10.478;2024-02-15T12:42:37;17.70;;;7.97;;
18649;SDS011;9454;53.516;10.478;2024-02-15T12:45:42;14.95;;;7.40;;
18649;SDS011;9454;53.516;10.478;2024-02-15T12:48:48;15.30;;;7.40;;
18649;SDS011;9454;53.516;10.478;2024-02-15T12:52:32;17.65;;;7.88;;
18649;SDS011;9454;53.516;10.478;2024-02-15T12:55:21;19.13;;;7.55;;
18649;SDS011;9454;53.516;10.478;2024-02-15T12:58:26;15.95;;;7.90;;
18649;SDS011;9454;53.516;10.478;2024-02-15T13:01:31;21.80;;;7.03;;
18649;SDS011;9454;53.516;10.478;2024-02-15T13:04:36;16.95;;;7.28;;
18649;SDS011;9454;53.516;10.478;2024-02-15T13:07:40;18.35;;;7.15;;
18649;SDS011;9454;53.516;10.478;2024-02-15T13:10:45;12.02;;;7.00;;
18649;SDS011;9454;53.516;10.478;2024-02-15T13:13:48;12.50;;;7.20;;
18649;SDS011;9454;53.516;10.478;2024-02-15T13:16:54;12.40;;;6.88;;
18649;SDS011;9454;53.516;10.478;2024-02-15T13:19:59;17.83;;;6.45;;
18649;SDS011;9454;53.516;10.478;2024-02-15T13:23:12;15.20;;;5.55;;
18649;SDS011;9454;53.516;10.478;2024-02-15T13:26:22;11.90;;;5.85;;
18649;SDS011;9454;53.516;10.478;2024-02-15T13:29:31;16.80;;;6.13;;
18649;SDS011;9454;53.516;10.478;2024-02-15T13:32:35;14.48;;;5.32;;
18649;SDS011;9454;53.516;10.478;2024-02-15T13:35:40;10.02;;;4.95;;
18649;SDS011;9454;53.516;10.478;2024-02-15T13:38:44;10.85;;;4.90;;
18649;SDS011;9454;53.516;10.478;2024-02-15T13:41:50;11.23;;;4.70;;
18649;SDS011;9454;53.516;10.478;2024-02-15T13:44:54;12.35;;;4.50;;
18649;SDS011;9454;53.516;10.478;2024-02-15T13:47:59;6.57;;;4.40;;
18649;SDS011;9454;53.516;10.478;2024-02-15T13:51:04;11.30;;;4.78;;
18649;SDS011;9454;53.516;10.478;2024-02-15T13:54:11;8.05;;;4.25;;
18649;SDS011;9454;53.516;10.478;2024-02-15T13:57:16;15.25;;;3.65;;
18649;SDS011;9454;53.516;10.478;2024-02-15T14:00:21;4.38;;;3.17;;
18649;SDS011;9454;53.516;10.478;2024-02-15T14:03:25;4.80;;;3.25;;
18649;SDS011;9454;53.516;10.478;2024-02-15T14:06:28;6.95;;;2.80;;
18649;SDS011;9454;53.516;10.478;2024-02-15T14:09:32;5.68;;;2.70;;
18649;SDS011;9454;53.516;10.478;2024-02-15T14:12:38;8.15;;;2.70;;
18649;SDS011;9454;53.516;10.478;2024-02-15T14:15:42;3.05;;;2.00;;
18649;SDS011;9454;53.516;10.478;2024-02-15T14:18:47;7.95;;;2.35;;
18649;SDS011;9454;53.516;10.478;2024-02-15T14:21:51;3.47;;;2.10;;
18649;SDS011;9454;53.516;10.478;2024-02-15T14:24:59;4.35;;;2.00;;
18649;SDS011;9454;53.516;10.478;2024-02-15T14:28:04;9.48;;;2.03;;
18649;SDS011;9454;53.516;10.478;2024-02-15T14:31:10;3.20;;;2.03;;
18649;SDS011;9454;53.516;10.478;2024-02-15T14:34:31;3.60;;;2.00;;
18649;SDS011;9454;53.516;10.478;2024-02-15T14:37:39;6.90;;;2.28;;
18649;SDS011;9454;53.516;10.478;2024-02-15T14:40:43;6.40;;;1.92;;
18649;SDS011;9454;53.516;10.478;2024-02-15T14:43:50;3.72;;;2.28;;
18649;SDS011;9454;53.516;10.478;2024-02-15T14:46:55;3.78;;;1.98;;
18649;SDS011;9454;53.516;10.478;2024-02-15T14:50:00;4.07;;;1.98;;
18649;SDS011;9454;53.516;10.478;2024-02-15T14:53:10;9.93;;;2.30;;
18649;SDS011;9454;53.516;10.478;2024-02-15T14:56:14;5.47;;;1.75;;
18649;SDS011;9454;53.516;10.478;2024-02-15T14:59:22;12.20;;;2.00;;
18649;SDS011;9454;53.516;10.478;2024-02-15T15:02:25;2.95;;;1.95;;
18649;SDS011;9454;53.516;10.478;2024-02-15T15:05:31;5.88;;;2.20;;
18649;SDS011;9454;53.516;10.478;2024-02-15T15:08:54;6.32;;;1.80;;
18649;SDS011;9454;53.516;10.478;2024-02-15T15:12:17;14.57;;;2.28;;
18649;SDS011;9454;53.516;10.478;2024-02-15T15:15:45;13.15;;;2.22;;
18649;SDS011;9454;53.516;10.478;2024-02-15T15:18:49;13.43;;;2.28;;
18649;SDS011;9454;53.516;10.478;2024-02-15T15:21:55;5.85;;;2.35;;
18649;SDS011;9454;53.516;10.478;2024-02-15T15:24:59;5.00;;;2.17;;
18649;SDS011;9454;53.516;10.478;2024-02-15T15:28:05;7.68;;;2.05;;
18649;SDS011;9454;53.516;10.478;2024-02-15T15:31:25;1.85;;;1.67;;
18649;SDS011;9454;53.516;10.478;2024-02-15T15:34:28;6.45;;;2.13;;
18649;SDS011;9454;53.516;10.478;2024-02-15T15:37:32;5.97;;;2.17;;
18649;SDS011;9454;53.516;10.478;2024-02-15T15:40:37;6.63;;;2.10;;
18649;SDS011;9454;53.516;10.478;2024-02-15T15:43:41;3.60;;;2.28;;
18649;SDS011;9454;53.516;10.478;2024-02-15T15:46:47;3.53;;;2.17;;
18649;SDS011;9454;53.516;10.478;2024-02-15T15:49:55;8.95;;;1.98;;
18649;SDS011;9454;53.516;10.478;2024-02-15T15:53:01;9.23;;;2.33;;
18649;SDS011;9454;53.516;10.478;2024-02-15T15:56:05;6.28;;;2.33;;
18649;SDS011;9454;53.516;10.478;2024-02-15T15:59:09;4.85;;;2.42;;
18649;SDS011;9454;53.516;10.478;2024-02-15T16:02:14;5.72;;;1.92;;
18649;SDS011;9454;53.516;10.478;2024-02-15T16:05:19;5.40;;;2.22;;
18649;SDS011;9454;53.516;10.478;2024-02-15T16:08:25;4.05;;;2.35;;
18649;SDS011;9454;53.516;10.478;2024-02-15T16:12:02;5.53;;;1.88;;
18649;SDS011;9454;53.516;10.478;2024-02-15T16:15:07;7.40;;;2.35;;
18649;SDS011;9454;53.516;10.478;2024-02-15T16:18:17;13.25;;;2.40;;
18649;SDS011;9454;53.516;10.478;2024-02-15T16:21:20;6.18;;;2.10;;
18649;SDS011;9454;53.516;10.478;2024-02-15T16:24:24;13.60;;;2.70;;
18649;SDS011;9454;53.516;10.478;2024-02-15T16:27:28;12.05;;;2.45;;
18649;SDS011;9454;53.516;10.478;2024-02-15T16:30:32;13.63;;;2.20;;
18649;SDS011;9454;53.516;10.478;2024-02-15T16:33:37;12.63;;;2.78;;
18649;SDS011;9454;53.516;10.478;2024-02-15T16:36:42;6.57;;;2.70;;
18649;SDS011;9454;53.516;10.478;2024-02-15T16:39:49;4.70;;;2.28;;
18649;SDS011;9454;53.516;10.478;2024-02-15T16:42:55;6.38;;;2.45;;
18649;SDS011;9454;53.516;10.478;2024-02-15T16:45:59;5.20;;;2.55;;
18649;SDS011;9454;53.516;10.478;2024-02-15T16:49:07;8.90;;;2.53;;
18649;SDS011;9454;53.516;10.478;2024-02-15T16:52:11;9.18;;;2.38;;
18649;SDS011;9454;53.516;10.478;2024-02-15T16:55:26;5.40;;;2.25;;
18649;SDS011;9454;53.516;10.478;2024-02-15T16:58:33;18.67;;;3.13;;
18649;SDS011;9454;53.516;10.478;2024-02-15T17:01:38;5.13;;;2.28;;
18649;SDS011;9454;53.516;10.478;2024-02-15T17:04:43;8.27;;;3.40;;
18649;SDS011;9454;53.516;10.478;2024-02-15T17:07:47;10.30;;;2.58;;
18649;SDS011;9454;53.516;10.478;2024-02-15T17:10:51;6.18;;;3.00;;
18649;SDS011;9454;53.516;10.478;2024-02-15T17:13:56;9.63;;;3.35;;
18649;SDS011;9454;53.516;10.478;2024-02-15T17:17:02;7.35;;;2.70;;
18649;SDS011;9454;53.516;10.478;2024-02-15T17:20:09;6.15;;;3.10;;
18649;SDS011;9454;53.516;10.478;2024-02-15T17:23:17;3.95;;;2.40;;
18649;SDS011;9454;53.516;10.478;2024-02-15T17:26:21;6.22;;;2.28;;
18649;SDS011;9454;53.516;10.478;2024-02-15T17:29:25;4.68;;;2.67;;
18649;SDS011;9454;53.516;10.478;2024-02-15T17:32:29;10.90;;;2.75;;
18649;SDS011;9454;53.516;10.478;2024-02-15T17:35:35;6.07;;;3.20;;
18649;SDS011;9454;53.516;10.478;2024-02-15T17:38:39;5.65;;;3.42;;
18649;SDS011;9454;53.516;10.478;2024-02-15T17:41:43;12.02;;;4.13;;
18649;SDS011;9454;53.516;10.478;2024-02-15T17:44:47;6.40;;;3.92;;
18649;SDS011;9454;53.516;10.478;2024-02-15T17:47:50;12.95;;;5.22;;
18649;SDS011;9454;53.516;10.478;2024-02-15T17:50:57;8.25;;;4.20;;
18649;SDS011;9454;53.516;10.478;2024-02-15T17:54:01;12.82;;;4.30;;
18649;SDS011;9454;53.516;10.478;2024-02-15T17:57:04;7.72;;;3.38;;
18649;SDS011;9454;53.516;10.478;2024-02-15T18:00:09;7.13;;;3.03;;
18649;SDS011;9454;53.516;10.478;2024-02-15T18:03:15;6.43;;;3.17;;
18649;SDS011;9454;53.516;10.478;2024-02-15T18:06:21;9.70;;;4.15;;
18649;SDS011;9454;53.516;10.478;2024-02-15T18:09:25;9.98;;;4.00;;
18649;SDS011;9454;53.516;10.478;2024-02-15T18:12:31;10.68;;;4.00;;
18649;SDS011;9454;53.516;10.478;2024-02-15T18:15:35;8.00;;;4.78;;
18649;SDS011;9454;53.516;10.478;2024-02-15T18:18:50;10.52;;;5.68;;
18649;SDS011;9454;53.516;10.478;2024-02-15T18:21:56;12.90;;;5.22;;
18649;SDS011;9454;53.516;10.478;2024-02-15T18:25:01;8.75;;;3.88;;
18649;SDS011;9454;53.516;10.478;2024-02-15T18:28:06;10.02;;;3.85;;
18649;SDS011;9454;53.516;10.478;2024-02-15T18:31:11;5.68;;;3.17;;
18649;SDS011;9454;53.516;10.478;2024-02-15T18:34:18;14.05;;;3.17;;
18649;SDS011;9454;53.516;10.478;2024-02-15T18:37:24;15.52;;;3.00;;
18649;SDS011;9454;53.516;10.478;2024-02-15T18:40:28;4.82;;;2.70;;
18649;SDS011;9454;53.516;10.478;2024-02-15T18:43:32;3.22;;;2.65;;
18649;SDS011;9454;53.516;10.478;2024-02-15T18:46:37;7.78;;;2.55;;